Terminal Aerodrome Forecast
Issued by NWS

Home | Current Version | Previous Version | Text Only | Print | Product List | Glossary On
Versions: 1 2 3 4 5 6 7 8 9 10 11 12 13 14 15 16 17 18 19 20 21 22 23 24 25 26 27 28 29
131
FTUS43 KDLH 130817 AAA
TAFHYR
TAF AMD
KHYR 130817Z 1308/1406 15006KT P6SM VCSH FEW016 OVC060
     FM130900 14008KT 3SM -SN OVC002
     FM131400 12006KT 2SM -SN OVC015
     FM131800 03005KT 6SM -SN OVC015
     FM132300 01005KT P6SM BKN030=

USA.gov is the U.S. government's official web portal to all federal, state and local government web resources and services.